Report METAR

 

LIML - Milano/Linate, Italy
Distance from station: E 6km
Dati ricevuti: 23/09/2020 07:20
Molto nuvoloso
Molto nuvoloso
 Vento da ESE
Vento: ESE 2 km/h
Temperatura: 17°C
P.to Rugiada: 16°C
Umidità: 94%
Barometro: 1011 hPa
Nuvole: Molto nuvoloso
Visibility: 7 km
Cloud details: Few Clouds 305 m
Molto nuvoloso 1524 m
2020/09/23 05:20 LIML 230520Z 12001KT 7000 FEW010 BKN050 17/16 Q1011 NOSIG
LIMC - Milano/Malpensa, Italy
Distance from station: ONO 40km
Dati ricevuti: 23/09/2020 07:20
Shallow fog, Mist, Nuvoloso
Shallow fog, Mist, Nuvoloso
 Vento da E
Vento: E 7 km/h
Temperatura: 16°C
P.to Rugiada: 16°C
Umidità: 100%
Barometro: 1011 hPa
Summary: Shallow fog, Mist
Nuvole: Molto nuvoloso
Visibility: 5 km
Cloud details: Molto nuvoloso 183 m
2020/09/23 05:20 LIMC 230520Z 10004KT 4500 R35R/P1500N R17L/1300D R35L/P1500N MIFG BR BKN006 16/16 Q1011 NOSIG
 
LIMN - Cameri (it-Afb), Italy
Distance from station: O 41km
Dati ricevuti: 23/09/2020 06:55
Mist, Parz. nuvoloso
Mist, Parz. nuvoloso
 Vento da NE
Vento: NE 6 km/h
Temperatura: 16°C
P.to Rugiada: 16°C
Umidità: 100%
Barometro: 1011 hPa
Summary: Mist
Nuvole: Parz. nuvoloso
Visibility: 3 km
Cloud details: Molto nuvoloso 122 m
Parz. nuvoloso 305 m
2020/09/23 04:55 LIMN 230455Z 04003KT 2500 BR BKN004 SCT010 16/16 Q1011 RMK OVC VIS MIN 2500 YLO
LIME - Bergamo/Orio Ser, Italy
Distance from station: ENE 45km
Dati ricevuti: 23/09/2020 07:20
Pioviggine, Coperto
Pioviggine, Coperto
 Vento da Variabile
Vento: Variabile 2 km/h
Temperatura: 16°C
P.to Rugiada: 16°C
Umidità: 100%
Barometro: 1011 hPa
Summary: Pioviggine
Nuvole: Coperto
Visibility: 9 km
Cloud details: Parz. nuvoloso 610 m
Coperto 2134 m
2020/09/23 05:20 LIME 230520Z VRB01KT 9000 -RA SCT020 OVC070 16/16 Q1011 NOSIG